Airfield :
LOGIN :

Register | Disclaimer

   EN    FR    IT 

 










Legend :    VFR   Marginal VFR   IFR   Intensive IFR   Very Intensive IFR
Visi :
Ceiling :
>= 8 km
>= 3000ft
5 to 8 km
1000 to 3000 ft
1500m to 5 km
500 to 1000 ft
800 to 1500m
200 to 500 ft
< 800m
< 200 ft
Symbols :   Thunderstorms  Fog  Heavy snow  Heavy precipitations  Wind > 20 kt
SIGMETs :     Misc.  Thunderstorms  Icing  Turbulence  Mountain Waves  Volcanic Ashes






- Airport Elevation : 909 ft
- IATA code : KSF


EDVK - Kassel Calden

CURRENT METAR :
  • 290820Z VRB02KT 2000 BR BKN002 06/05 Q1016

EXPIRED METARs :
  • 290750Z VRB01KT 0800 R27/1000D FG BKN002 05/05 Q1016
  • 290720Z 29001KT 0800 R27/1100N -RA FG BKN002 05/05 Q1015
  • 290650Z 25001KT 0800 R27/0800N -RA FG OVC002 05/05 Q1015
  • 290620Z VRB01KT 0600 R27/0800D FG BKN002 05/05 Q1015
  • 290550Z AUTO VRB01KT 1100 0700 R09/1500D // BKN001/// 05/05 Q1015

TAF TAF EDVK
Valid from the 29 at 09:00 until the 29 at 18:00 UTC


290800Z 2909/2918 32004KT 3000 BR BKN004
TEMPO 2909/2911 0800 -DZ FG OVC001
TEMPO 2912/2918 5000 BKN008



MET'MAP, your aeronautical weather chart ! - Copyright ORBIFLY December 2007 - Disclaimer

ORBIFLY MET'MAP TEAM :

Programming & Development : Alexandra Zaïnal
Original concept : Baudouin d'Aumeries
Technical & hardware support : Manuel Goepfert
Assistance : Marc-Olivier Méhu




SOURCES & CREDITS :

   NOAA